Terminal Aerodrome Forecast
Issued by NWS

Home | Current Version | Previous Version | Text Only | Print | Product List | Glossary On
Versions: 1 2 3 4 5 6 7 8 9 10 11 12 13 14 15 16 17 18 19 20 21 22
108
FTUS43 KJKL 162328
TAFSME
TAF
KSME 162328Z 1700/1724 VRB03KT P6SM FEW050
     FM170600 00000KT 3SM BR SKC
      TEMPO 1708/1712 1/2SM FG BKN003
     FM171400 VRB04KT P6SM SCT050=

USA.gov is the U.S. government's official web portal to all federal, state and local government web resources and services.